• Join FlightAware (Why Join?)
  • Login
  • US Flag 
05:10PM EDT


 

Airport Tracker/Info


-or-


 

Live Flight TrackerFlight Track Log ✈ N2827N ✈ 03-Feb-2014 ✈ KTLH - KPIE

Flight Track Log - Related Links

Times and Time Zones

All times are in EST time to prevent confusion due to time zone crossing. See the N2827N flight status page for this flight to view local times or setup timezone preferences in your user account.

Time Position Orientation Groundspeed Altitude Reporting Facility
EST Latitude Longitude Course Direction KTS MPH feet Rate Location/Type
09:06AM 30.1905 -84.2093 144° Southeast  Level Estimated
09:07AM 30.1657 -84.1730 128° Southeast  Level FlightAware Approximate
09:08AM 30.1312 -84.1497 146° Southeast  Level Estimated
09:09AM 30.0989 -84.1225 144° Southeast  Level FlightAware Approximate
09:10AM 30.0666 -84.0953 144° Southeast  Level FlightAware Approximate
09:11AM 30.0343 -84.0682 144° Southeast  Level FlightAware Approximate
09:12AM 30.0019 -84.0411 144° Southeast  Level FlightAware Approximate
09:13AM 29.9696 -84.0140 144° Southeast  Level FlightAware Approximate
09:14AM 29.9373 -83.9869 144° Southeast  Level FlightAware Approximate
09:14AM 30.1089 -84.0500 151° Southeast 170 196 7,000  Level Jacksonville Center
09:15AM 29.9049 -83.9598 144° Southeast  Level FlightAware Approximate
09:15AM 30.0672 -84.0278 155° Southeast 170 196 6,900  Level Jacksonville Center
09:16AM 29.8726 -83.9328 144° Southeast  Level FlightAware Approximate
09:16AM 30.0258 -84.0058 155° Southeast 170 196 6,900  Level Jacksonville Center
09:17AM 29.8377 -83.9102 139° Southeast  Level Estimated
09:17AM 29.9822 -83.9814 154° Southeast 170 196 6,900  Level Jacksonville Center
09:18AM 29.8029 -83.8876 151° Southeast  Level Estimated
09:18AM 29.9383 -83.9617 159° South 170 196 6,900  Level Jacksonville Center
09:19AM 29.8969 -83.9419 158° South 170 196 6,900  Level Jacksonville Center
09:20AM 29.8572 -83.9200 154° Southeast 165 190 7,000  Climbing Jacksonville Center
09:21AM 29.8117 -83.9003 159° South 170 196 7,000 -60 Level Jacksonville Center
09:22AM 29.7722 -83.8711 147° Southeast 170 196 6,900 -60 Descending Jacksonville Center
09:23AM 29.7264 -83.8469 155° Southeast 176 203 6,900  Level Jacksonville Center
09:24AM 29.6889 -83.8178 146° Southeast 169 194 6,900  Level Jacksonville Center
09:25AM 29.6536 -83.7911 147° Southeast 168 193 7,000  Climbing Jacksonville Center
09:26AM 29.6081 -83.7669 155° Southeast 168 193 6,900  Descending Jacksonville Center
09:27AM 29.5686 -83.7403 150° Southeast 174 200 7,000  Climbing Jacksonville Center
09:28AM 29.5289 -83.7136 150° Southeast 169 194 6,900 -60 Descending Jacksonville Center
09:29AM 29.4875 -83.6894 153° Southeast 169 194 6,900  Level Jacksonville Center
09:30AM 29.4478 -83.6628 150° Southeast 169 194 6,900  Level Jacksonville Center
09:31AM 29.4000 -83.6411 158° South 169 194 6,900  Level Jacksonville Center
09:32AM 29.3689 -83.6122 141° Southeast 164 189 6,900  Level Jacksonville Center
09:33AM 29.3189 -83.5881 157° South 172 198 6,900  Level Jacksonville Center
09:34AM 29.2878 -83.5592 141° Southeast 172 198 6,900  Level Jacksonville Center
09:35AM 29.2397 -83.5350 156° South 172 198 6,900  Level Jacksonville Center
09:36AM 29.1983 -83.5064 149° Southeast 172 198 7,000  Climbing Jacksonville Center
09:37AM 29.1567 -83.4822 153° Southeast 172 198 7,000  Level Jacksonville Center
09:38AM 29.1233 -83.4558 145° Southeast 156 180 7,000  Level Jacksonville Center
09:39AM 29.0775 -83.4272 151° Southeast 161 185 7,000  Level Jacksonville Center
09:40AM 29.0381 -83.4031 152° Southeast 167 192 7,000  Level Jacksonville Center
09:41AM 28.9983 -83.3769 150° Southeast 167 192 7,000  Level Jacksonville Center
09:42AM 28.9589 -83.3506 150° Southeast 167 192 7,000  Level Jacksonville Center
09:43AM 28.9150 -83.3267 155° Southeast 167 192 7,000  Level Jacksonville Center
09:44AM 28.8733 -83.3053 156° South 167 192 7,000  Level Jacksonville Center
09:45AM 28.8317 -83.2764 149° Southeast 167 192 7,000  Level Jacksonville Center
09:46AM 28.7922 -83.2503 150° Southeast 172 198 7,000  Level Jacksonville Center
09:47AM 28.7506 -83.2264 153° Southeast 172 198 7,000  Level Jacksonville Center
09:49AM 28.6667 -83.1667 148° Southeast 167 192 7,000  Level Tampa TRACON
09:50AM 28.6333 -83.1500 156° South 165 190 7,000  Level Tampa TRACON
09:51AM 28.5833 -83.1167 150° Southeast 162 186 7,000  Level Tampa TRACON
09:52AM 28.5500 -83.0833 139° Southeast 162 186 7,000  Level Tampa TRACON
09:53AM 28.5000 -83.0667 164° South 159 183 7,000  Level Tampa TRACON
09:54AM 28.4667 -83.0333 139° Southeast 159 183 7,000  Level Tampa TRACON
09:55AM 28.4333 -83.0167 156° South 160 184 7,000  Level Tampa TRACON
09:56AM 28.3833 -82.9833 150° Southeast 160 184 7,000  Level Tampa TRACON
09:57AM 28.3500 -82.9667 156° South 160 184 7,000 -360 Level Tampa TRACON
09:58AM 28.3167 -82.9333 139° Southeast 165 190 6,400 -600 Descending Tampa TRACON
09:59AM 28.2833 -82.9000 139° Southeast 167 192 5,900 -600 Descending Tampa TRACON
10:00AM 28.2333 -82.8667 150° Southeast 170 196 5,200 -780 Descending Tampa TRACON
10:01AM 28.2000 -82.8500 156° South 164 189 4,400 -900 Descending Tampa TRACON
10:02AM 28.1500 -82.8333 164° South 165 190 3,400 -900 Descending Tampa TRACON
10:03AM 28.1167 -82.8167 156° South 163 188 2,700 -900 Descending Tampa TRACON